sensor_id;sensor_type;location;lat;lon;timestamp;temperature;humidity
2441;DHT22;1231;53.988;9.470;2023-04-15T00:00:59;8.90;86.30
2441;DHT22;1231;53.988;9.470;2023-04-15T00:03:51;8.90;86.40
2441;DHT22;1231;53.988;9.470;2023-04-15T00:06:49;8.90;86.50
2441;DHT22;1231;53.988;9.470;2023-04-15T00:09:41;8.90;86.50
2441;DHT22;1231;53.988;9.470;2023-04-15T00:12:32;8.90;86.60
2441;DHT22;1231;53.988;9.470;2023-04-15T00:15:23;8.90;86.70
2441;DHT22;1231;53.988;9.470;2023-04-15T00:18:14;8.90;86.70
2441;DHT22;1231;53.988;9.470;2023-04-15T00:21:05;8.90;86.70
2441;DHT22;1231;53.988;9.470;2023-04-15T00:23:56;8.90;86.80
2441;DHT22;1231;53.988;9.470;2023-04-15T00:26:47;8.90;87.10
2441;DHT22;1231;53.988;9.470;2023-04-15T00:29:38;8.90;87.10
2441;DHT22;1231;53.988;9.470;2023-04-15T00:32:29;8.90;87.20
2441;DHT22;1231;53.988;9.470;2023-04-15T00:35:20;8.90;87.30
2441;DHT22;1231;53.988;9.470;2023-04-15T00:38:11;8.90;87.40
2441;DHT22;1231;53.988;9.470;2023-04-15T00:41:03;8.90;87.40
2441;DHT22;1231;53.988;9.470;2023-04-15T00:43:54;8.90;87.50
2441;DHT22;1231;53.988;9.470;2023-04-15T00:46:45;8.80;87.70
2441;DHT22;1231;53.988;9.470;2023-04-15T00:49:36;8.90;87.90
2441;DHT22;1231;53.988;9.470;2023-04-15T00:52:27;8.80;88.00
2441;DHT22;1231;53.988;9.470;2023-04-15T00:55:18;8.80;88.10
2441;DHT22;1231;53.988;9.470;2023-04-15T00:58:09;8.80;88.20
2441;DHT22;1231;53.988;9.470;2023-04-15T01:01:00;8.80;88.40
2441;DHT22;1231;53.988;9.470;2023-04-15T01:03:51;8.80;88.50
2441;DHT22;1231;53.988;9.470;2023-04-15T01:06:43;8.80;88.60
2441;DHT22;1231;53.988;9.470;2023-04-15T01:09:34;8.80;88.60
2441;DHT22;1231;53.988;9.470;2023-04-15T01:12:26;8.80;88.60
2441;DHT22;1231;53.988;9.470;2023-04-15T01:15:17;8.80;88.70
2441;DHT22;1231;53.988;9.470;2023-04-15T01:18:08;8.80;88.80
2441;DHT22;1231;53.988;9.470;2023-04-15T01:21:00;8.80;88.90
2441;DHT22;1231;53.988;9.470;2023-04-15T01:23:52;8.80;89.00
2441;DHT22;1231;53.988;9.470;2023-04-15T01:26:45;8.80;88.90
2441;DHT22;1231;53.988;9.470;2023-04-15T01:29:37;8.80;88.80
2441;DHT22;1231;53.988;9.470;2023-04-15T01:32:28;8.80;89.00
2441;DHT22;1231;53.988;9.470;2023-04-15T01:35:20;8.70;89.40
2441;DHT22;1231;53.988;9.470;2023-04-15T01:38:12;8.70;89.40
2441;DHT22;1231;53.988;9.470;2023-04-15T01:41:03;8.70;89.50
2441;DHT22;1231;53.988;9.470;2023-04-15T01:43:54;8.70;89.80
2441;DHT22;1231;53.988;9.470;2023-04-15T01:46:45;8.60;89.90
2441;DHT22;1231;53.988;9.470;2023-04-15T01:49:42;8.60;90.20
2441;DHT22;1231;53.988;9.470;2023-04-15T01:52:33;8.60;90.30
2441;DHT22;1231;53.988;9.470;2023-04-15T01:55:24;8.60;90.50
2441;DHT22;1231;53.988;9.470;2023-04-15T01:58:15;8.60;90.60
2441;DHT22;1231;53.988;9.470;2023-04-15T02:01:06;8.60;90.70
2441;DHT22;1231;53.988;9.470;2023-04-15T02:03:59;8.60;90.60
2441;DHT22;1231;53.988;9.470;2023-04-15T02:06:50;8.50;90.80
2441;DHT22;1231;53.988;9.470;2023-04-15T02:09:41;8.50;91.10
2441;DHT22;1231;53.988;9.470;2023-04-15T02:12:33;8.50;91.30
2441;DHT22;1231;53.988;9.470;2023-04-15T02:15:24;8.50;91.30
2441;DHT22;1231;53.988;9.470;2023-04-15T02:18:15;8.50;91.40
2441;DHT22;1231;53.988;9.470;2023-04-15T02:21:06;8.50;91.50
2441;DHT22;1231;53.988;9.470;2023-04-15T02:23:57;8.50;91.70
2441;DHT22;1231;53.988;9.470;2023-04-15T02:26:48;8.50;91.70
2441;DHT22;1231;53.988;9.470;2023-04-15T02:29:39;8.50;91.70
2441;DHT22;1231;53.988;9.470;2023-04-15T02:32:30;8.60;91.70
2441;DHT22;1231;53.988;9.470;2023-04-15T02:35:21;8.60;91.80
2441;DHT22;1231;53.988;9.470;2023-04-15T02:38:12;8.50;91.80
2441;DHT22;1231;53.988;9.470;2023-04-15T02:41:04;8.60;91.90
2441;DHT22;1231;53.988;9.470;2023-04-15T02:43:55;8.60;92.00
2441;DHT22;1231;53.988;9.470;2023-04-15T02:46:53;8.60;91.90
2441;DHT22;1231;53.988;9.470;2023-04-15T02:49:44;8.60;91.90
2441;DHT22;1231;53.988;9.470;2023-04-15T02:52:35;8.60;91.90
2441;DHT22;1231;53.988;9.470;2023-04-15T02:55:26;8.60;91.90
2441;DHT22;1231;53.988;9.470;2023-04-15T02:58:17;8.60;91.90
2441;DHT22;1231;53.988;9.470;2023-04-15T03:01:08;8.70;92.00
2441;DHT22;1231;53.988;9.470;2023-04-15T03:03:59;8.70;92.00
2441;DHT22;1231;53.988;9.470;2023-04-15T03:06:50;8.70;92.10
2441;DHT22;1231;53.988;9.470;2023-04-15T03:09:41;8.70;92.10
2441;DHT22;1231;53.988;9.470;2023-04-15T03:12:32;8.70;92.10
2441;DHT22;1231;53.988;9.470;2023-04-15T03:15:23;8.70;92.20
2441;DHT22;1231;53.988;9.470;2023-04-15T03:18:14;8.70;92.10
2441;DHT22;1231;53.988;9.470;2023-04-15T03:21:05;8.70;92.20
2441;DHT22;1231;53.988;9.470;2023-04-15T03:23:56;8.80;92.30
2441;DHT22;1231;53.988;9.470;2023-04-15T03:26:47;8.70;92.30
2441;DHT22;1231;53.988;9.470;2023-04-15T03:29:38;8.80;92.30
2441;DHT22;1231;53.988;9.470;2023-04-15T03:32:29;8.80;92.30
2441;DHT22;1231;53.988;9.470;2023-04-15T03:35:19;8.70;92.40
2441;DHT22;1231;53.988;9.470;2023-04-15T03:38:10;8.80;92.50
2441;DHT22;1231;53.988;9.470;2023-04-15T03:41:01;8.80;92.50
2441;DHT22;1231;53.988;9.470;2023-04-15T03:43:52;8.80;92.60
2441;DHT22;1231;53.988;9.470;2023-04-15T03:46:43;8.80;92.50
2441;DHT22;1231;53.988;9.470;2023-04-15T03:49:35;8.80;92.40
2441;DHT22;1231;53.988;9.470;2023-04-15T03:52:26;8.90;92.50
2441;DHT22;1231;53.988;9.470;2023-04-15T03:55:17;8.80;92.40
2441;DHT22;1231;53.988;9.470;2023-04-15T03:58:08;8.80;92.60
2441;DHT22;1231;53.988;9.470;2023-04-15T04:01:02;8.80;92.70
2441;DHT22;1231;53.988;9.470;2023-04-15T04:03:53;8.80;92.80
2441;DHT22;1231;53.988;9.470;2023-04-15T04:06:44;8.80;93.00
2441;DHT22;1231;53.988;9.470;2023-04-15T04:09:35;8.80;92.90
2441;DHT22;1231;53.988;9.470;2023-04-15T04:12:27;8.90;92.90
2441;DHT22;1231;53.988;9.470;2023-04-15T04:15:18;8.90;92.90
2441;DHT22;1231;53.988;9.470;2023-04-15T04:18:09;8.80;92.90
2441;DHT22;1231;53.988;9.470;2023-04-15T04:21:00;8.80;93.10
2441;DHT22;1231;53.988;9.470;2023-04-15T04:23:51;8.90;93.00
2441;DHT22;1231;53.988;9.470;2023-04-15T04:26:42;8.90;93.00
2441;DHT22;1231;53.988;9.470;2023-04-15T04:29:33;8.90;93.00
2441;DHT22;1231;53.988;9.470;2023-04-15T04:32:24;8.90;93.10
2441;DHT22;1231;53.988;9.470;2023-04-15T04:35:15;8.90;93.10
2441;DHT22;1231;53.988;9.470;2023-04-15T04:38:06;8.90;93.20
2441;DHT22;1231;53.988;9.470;2023-04-15T04:40:57;8.90;93.20
2441;DHT22;1231;53.988;9.470;2023-04-15T04:43:48;8.90;93.20
2441;DHT22;1231;53.988;9.470;2023-04-15T04:46:39;9.00;93.20
2441;DHT22;1231;53.988;9.470;2023-04-15T04:49:30;9.00;93.10
2441;DHT22;1231;53.988;9.470;2023-04-15T04:52:21;9.00;93.10
2441;DHT22;1231;53.988;9.470;2023-04-15T04:55:11;9.00;93.10
2441;DHT22;1231;53.988;9.470;2023-04-15T04:58:02;9.00;93.20
2441;DHT22;1231;53.988;9.470;2023-04-15T05:00:53;9.00;93.10
2441;DHT22;1231;53.988;9.470;2023-04-15T05:03:45;9.00;93.10
2441;DHT22;1231;53.988;9.470;2023-04-15T05:06:36;9.00;93.20
2441;DHT22;1231;53.988;9.470;2023-04-15T05:09:27;9.10;93.20
2441;DHT22;1231;53.988;9.470;2023-04-15T05:12:18;9.10;93.20
2441;DHT22;1231;53.988;9.470;2023-04-15T05:15:09;9.10;93.20
2441;DHT22;1231;53.988;9.470;2023-04-15T05:18:00;9.10;93.30
2441;DHT22;1231;53.988;9.470;2023-04-15T05:20:51;9.20;93.20
2441;DHT22;1231;53.988;9.470;2023-04-15T05:23:42;9.20;93.20
2441;DHT22;1231;53.988;9.470;2023-04-15T05:26:33;9.20;93.10
2441;DHT22;1231;53.988;9.470;2023-04-15T05:29:24;9.20;93.10
2441;DHT22;1231;53.988;9.470;2023-04-15T05:32:15;9.20;93.10
2441;DHT22;1231;53.988;9.470;2023-04-15T05:35:06;9.20;93.30
2441;DHT22;1231;53.988;9.470;2023-04-15T05:37:58;9.20;93.40
2441;DHT22;1231;53.988;9.470;2023-04-15T05:40:49;9.30;93.20
2441;DHT22;1231;53.988;9.470;2023-04-15T05:43:40;9.30;93.30
2441;DHT22;1231;53.988;9.470;2023-04-15T05:46:31;9.30;93.20
2441;DHT22;1231;53.988;9.470;2023-04-15T05:49:21;9.30;93.30
2441;DHT22;1231;53.988;9.470;2023-04-15T05:52:12;9.40;93.30
2441;DHT22;1231;53.988;9.470;2023-04-15T05:55:03;9.40;93.10
2441;DHT22;1231;53.988;9.470;2023-04-15T05:57:55;9.50;93.10
2441;DHT22;1231;53.988;9.470;2023-04-15T06:00:46;9.50;92.90
2441;DHT22;1231;53.988;9.470;2023-04-15T06:03:37;9.50;92.90
2441;DHT22;1231;53.988;9.470;2023-04-15T06:06:28;9.50;93.00
2441;DHT22;1231;53.988;9.470;2023-04-15T06:09:19;9.60;92.80
2441;DHT22;1231;53.988;9.470;2023-04-15T06:12:10;9.60;92.60
2441;DHT22;1231;53.988;9.470;2023-04-15T06:15:02;9.70;92.60
2441;DHT22;1231;53.988;9.470;2023-04-15T06:17:53;9.60;92.50
2441;DHT22;1231;53.988;9.470;2023-04-15T06:20:45;9.70;92.50
2441;DHT22;1231;53.988;9.470;2023-04-15T06:23:36;9.70;92.30
2441;DHT22;1231;53.988;9.470;2023-04-15T06:26:27;9.70;92.20
2441;DHT22;1231;53.988;9.470;2023-04-15T06:29:18;9.70;92.20
2441;DHT22;1231;53.988;9.470;2023-04-15T06:32:10;9.70;92.30
2441;DHT22;1231;53.988;9.470;2023-04-15T06:35:01;9.70;92.30
2441;DHT22;1231;53.988;9.470;2023-04-15T06:37:52;9.80;92.20
2441;DHT22;1231;53.988;9.470;2023-04-15T06:40:43;9.70;92.30
2441;DHT22;1231;53.988;9.470;2023-04-15T06:43:34;9.70;92.30
2441;DHT22;1231;53.988;9.470;2023-04-15T06:46:25;9.70;92.20
2441;DHT22;1231;53.988;9.470;2023-04-15T06:49:16;9.70;92.20
2441;DHT22;1231;53.988;9.470;2023-04-15T06:52:08;9.70;92.50
2441;DHT22;1231;53.988;9.470;2023-04-15T06:55:00;9.60;92.50
2441;DHT22;1231;53.988;9.470;2023-04-15T06:57:51;9.60;92.70
2441;DHT22;1231;53.988;9.470;2023-04-15T07:00:42;9.70;92.90
2441;DHT22;1231;53.988;9.470;2023-04-15T07:03:34;9.70;92.90
2441;DHT22;1231;53.988;9.470;2023-04-15T07:06:25;9.70;93.10
2441;DHT22;1231;53.988;9.470;2023-04-15T07:09:17;9.80;93.20
2441;DHT22;1231;53.988;9.470;2023-04-15T07:12:08;9.80;93.10
2441;DHT22;1231;53.988;9.470;2023-04-15T07:15:05;9.90;93.10
2441;DHT22;1231;53.988;9.470;2023-04-15T07:17:56;9.90;93.00
2441;DHT22;1231;53.988;9.470;2023-04-15T07:20:47;10.00;93.10
2441;DHT22;1231;53.988;9.470;2023-04-15T07:23:38;10.10;93.00
2441;DHT22;1231;53.988;9.470;2023-04-15T07:26:29;10.10;92.80
2441;DHT22;1231;53.988;9.470;2023-04-15T07:29:20;10.20;92.60
2441;DHT22;1231;53.988;9.470;2023-04-15T07:32:11;10.20;92.50
2441;DHT22;1231;53.988;9.470;2023-04-15T07:35:02;10.20;92.30
2441;DHT22;1231;53.988;9.470;2023-04-15T07:37:53;10.30;92.30
2441;DHT22;1231;53.988;9.470;2023-04-15T07:40:45;10.30;92.10
2441;DHT22;1231;53.988;9.470;2023-04-15T07:43:36;10.30;92.00
2441;DHT22;1231;53.988;9.470;2023-04-15T07:46:27;10.30;91.80
2441;DHT22;1231;53.988;9.470;2023-04-15T07:49:18;10.30;92.00
2441;DHT22;1231;53.988;9.470;2023-04-15T07:52:10;10.30;92.10
2441;DHT22;1231;53.988;9.470;2023-04-15T07:55:02;10.30;92.00
2441;DHT22;1231;53.988;9.470;2023-04-15T07:57:53;10.30;91.90
2441;DHT22;1231;53.988;9.470;2023-04-15T08:00:44;10.30;91.90
2441;DHT22;1231;53.988;9.470;2023-04-15T08:03:35;10.30;92.10
2441;DHT22;1231;53.988;9.470;2023-04-15T08:06:33;10.40;91.70
2441;DHT22;1231;53.988;9.470;2023-04-15T08:09:24;10.40;92.10
2441;DHT22;1231;53.988;9.470;2023-04-15T08:12:22;10.50;91.80
2441;DHT22;1231;53.988;9.470;2023-04-15T08:15:13;10.60;91.70
2441;DHT22;1231;53.988;9.470;2023-04-15T08:18:04;10.60;90.80
2441;DHT22;1231;53.988;9.470;2023-04-15T08:20:56;10.70;90.90
2441;DHT22;1231;53.988;9.470;2023-04-15T08:23:48;10.70;90.50
2441;DHT22;1231;53.988;9.470;2023-04-15T08:26:41;10.70;90.40
2441;DHT22;1231;53.988;9.470;2023-04-15T08:29:33;10.70;90.40
2441;DHT22;1231;53.988;9.470;2023-04-15T08:32:24;10.70;90.20
2441;DHT22;1231;53.988;9.470;2023-04-15T08:35:16;10.70;90.10
2441;DHT22;1231;53.988;9.470;2023-04-15T08:38:07;10.60;90.20
2441;DHT22;1231;53.988;9.470;2023-04-15T08:41:01;10.70;90.30
2441;DHT22;1231;53.988;9.470;2023-04-15T08:44:03;10.70;90.10
2441;DHT22;1231;53.988;9.470;2023-04-15T08:46:55;10.70;90.30
2441;DHT22;1231;53.988;9.470;2023-04-15T08:49:47;10.70;90.30
2441;DHT22;1231;53.988;9.470;2023-04-15T08:52:43;10.70;90.10
2441;DHT22;1231;53.988;9.470;2023-04-15T08:55:35;10.70;90.00
2441;DHT22;1231;53.988;9.470;2023-04-15T08:58:29;10.50;90.00
2441;DHT22;1231;53.988;9.470;2023-04-15T09:01:20;10.40;90.30
2441;DHT22;1231;53.988;9.470;2023-04-15T09:04:11;10.30;90.70
2441;DHT22;1231;53.988;9.470;2023-04-15T09:07:02;10.30;90.90
2441;DHT22;1231;53.988;9.470;2023-04-15T09:09:54;10.30;91.00
2441;DHT22;1231;53.988;9.470;2023-04-15T09:12:45;10.20;91.30
2441;DHT22;1231;53.988;9.470;2023-04-15T09:15:42;10.30;91.50
2441;DHT22;1231;53.988;9.470;2023-04-15T09:18:36;10.30;91.70
2441;DHT22;1231;53.988;9.470;2023-04-15T09:21:27;10.40;91.70
2441;DHT22;1231;53.988;9.470;2023-04-15T09:24:19;10.50;91.20
2441;DHT22;1231;53.988;9.470;2023-04-15T09:27:10;10.60;90.90
2441;DHT22;1231;53.988;9.470;2023-04-15T09:30:01;10.60;90.60
2441;DHT22;1231;53.988;9.470;2023-04-15T09:32:57;10.70;90.60
2441;DHT22;1231;53.988;9.470;2023-04-15T09:36:02;10.80;90.70
2441;DHT22;1231;53.988;9.470;2023-04-15T09:38:58;11.00;90.20
2441;DHT22;1231;53.988;9.470;2023-04-15T09:42:09;11.20;89.50
2441;DHT22;1231;53.988;9.470;2023-04-15T09:45:10;11.30;88.90
2441;DHT22;1231;53.988;9.470;2023-04-15T09:51:10;11.50;88.20
2441;DHT22;1231;53.988;9.470;2023-04-15T09:54:01;11.60;88.10
2441;DHT22;1231;53.988;9.470;2023-04-15T09:59:44;11.80;86.80
2441;DHT22;1231;53.988;9.470;2023-04-15T10:02:36;11.80;86.60
2441;DHT22;1231;53.988;9.470;2023-04-15T10:05:27;11.90;86.30
2441;DHT22;1231;53.988;9.470;2023-04-15T10:08:23;12.00;86.30
2441;DHT22;1231;53.988;9.470;2023-04-15T10:11:17;12.10;85.90
2441;DHT22;1231;53.988;9.470;2023-04-15T10:14:08;12.20;86.10
2441;DHT22;1231;53.988;9.470;2023-04-15T10:17:01;12.20;85.30
2441;DHT22;1231;53.988;9.470;2023-04-15T10:19:53;12.20;85.00
2441;DHT22;1231;53.988;9.470;2023-04-15T10:22:45;12.20;85.10
2441;DHT22;1231;53.988;9.470;2023-04-15T10:25:37;12.30;85.00
2441;DHT22;1231;53.988;9.470;2023-04-15T10:31:20;12.70;84.40
2441;DHT22;1231;53.988;9.470;2023-04-15T10:34:12;12.90;84.30
2441;DHT22;1231;53.988;9.470;2023-04-15T10:37:09;12.90;83.50
2441;DHT22;1231;53.988;9.470;2023-04-15T10:43:24;13.20;83.40
2441;DHT22;1231;53.988;9.470;2023-04-15T10:46:45;13.50;82.40
2441;DHT22;1231;53.988;9.470;2023-04-15T10:49:42;13.50;80.90
2441;DHT22;1231;53.988;9.470;2023-04-15T10:52:39;13.40;80.40
2441;DHT22;1231;53.988;9.470;2023-04-15T10:55:32;13.40;80.90
2441;DHT22;1231;53.988;9.470;2023-04-15T10:58:24;13.50;81.10
2441;DHT22;1231;53.988;9.470;2023-04-15T11:01:15;13.60;80.70
2441;DHT22;1231;53.988;9.470;2023-04-15T11:04:06;13.60;80.70
2441;DHT22;1231;53.988;9.470;2023-04-15T11:07:06;13.60;79.80
2441;DHT22;1231;53.988;9.470;2023-04-15T11:13:02;13.60;81.30
2441;DHT22;1231;53.988;9.470;2023-04-15T11:15:57;13.70;81.40
2441;DHT22;1231;53.988;9.470;2023-04-15T11:18:55;13.80;79.90
2441;DHT22;1231;53.988;9.470;2023-04-15T11:21:46;13.80;80.20
2441;DHT22;1231;53.988;9.470;2023-04-15T11:24:46;14.00;80.20
2441;DHT22;1231;53.988;9.470;2023-04-15T11:27:38;14.20;79.50
2441;DHT22;1231;53.988;9.470;2023-04-15T11:30:31;14.20;78.20
2441;DHT22;1231;53.988;9.470;2023-04-15T11:33:23;14.20;78.20
2441;DHT22;1231;53.988;9.470;2023-04-15T11:36:14;14.30;78.30
2441;DHT22;1231;53.988;9.470;2023-04-15T11:39:06;14.40;78.30
2441;DHT22;1231;53.988;9.470;2023-04-15T11:41:57;14.40;77.90
2441;DHT22;1231;53.988;9.470;2023-04-15T11:44:48;14.40;77.50
2441;DHT22;1231;53.988;9.470;2023-04-15T11:47:40;14.40;77.90
2441;DHT22;1231;53.988;9.470;2023-04-15T11:50:31;14.50;77.10
2441;DHT22;1231;53.988;9.470;2023-04-15T11:53:22;14.70;77.40
2441;DHT22;1231;53.988;9.470;2023-04-15T11:56:31;15.00;76.50
2441;DHT22;1231;53.988;9.470;2023-04-15T11:59:22;15.10;74.90
2441;DHT22;1231;53.988;9.470;2023-04-15T12:02:13;15.20;74.70
2441;DHT22;1231;53.988;9.470;2023-04-15T12:05:05;15.20;73.80
2441;DHT22;1231;53.988;9.470;2023-04-15T12:07:57;15.40;74.70
2441;DHT22;1231;53.988;9.470;2023-04-15T12:10:48;15.60;72.20
2441;DHT22;1231;53.988;9.470;2023-04-15T12:13:46;15.60;71.10
2441;DHT22;1231;53.988;9.470;2023-04-15T12:16:43;15.60;72.20
2441;DHT22;1231;53.988;9.470;2023-04-15T12:19:37;15.70;71.60
2441;DHT22;1231;53.988;9.470;2023-04-15T12:25:33;15.60;70.70
2441;DHT22;1231;53.988;9.470;2023-04-15T12:28:24;15.50;70.90
2441;DHT22;1231;53.988;9.470;2023-04-15T12:34:07;15.50;71.60
2441;DHT22;1231;53.988;9.470;2023-04-15T12:37:00;15.70;69.10
2441;DHT22;1231;53.988;9.470;2023-04-15T12:39:51;15.70;69.50
2441;DHT22;1231;53.988;9.470;2023-04-15T12:42:43;15.70;69.60
2441;DHT22;1231;53.988;9.470;2023-04-15T12:45:34;15.80;69.10
2441;DHT22;1231;53.988;9.470;2023-04-15T12:48:25;15.90;69.50
2441;DHT22;1231;53.988;9.470;2023-04-15T12:51:16;15.90;69.20
2441;DHT22;1231;53.988;9.470;2023-04-15T12:54:07;15.80;68.90
2441;DHT22;1231;53.988;9.470;2023-04-15T12:56:58;15.60;68.40
2441;DHT22;1231;53.988;9.470;2023-04-15T13:02:42;15.60;68.80
2441;DHT22;1231;53.988;9.470;2023-04-15T13:05:34;15.60;69.40
2441;DHT22;1231;53.988;9.470;2023-04-15T13:08:26;15.50;70.10
2441;DHT22;1231;53.988;9.470;2023-04-15T13:11:17;15.40;69.20
2441;DHT22;1231;53.988;9.470;2023-04-15T13:14:10;15.30;69.80
2441;DHT22;1231;53.988;9.470;2023-04-15T13:17:02;15.30;70.10
2441;DHT22;1231;53.988;9.470;2023-04-15T13:19:58;15.20;69.90
2441;DHT22;1231;53.988;9.470;2023-04-15T13:22:51;15.10;70.00
2441;DHT22;1231;53.988;9.470;2023-04-15T13:25:42;15.00;70.30
2441;DHT22;1231;53.988;9.470;2023-04-15T13:28:33;14.90;70.20
2441;DHT22;1231;53.988;9.470;2023-04-15T13:31:24;15.00;70.00
2441;DHT22;1231;53.988;9.470;2023-04-15T13:34:15;15.00;69.90
2441;DHT22;1231;53.988;9.470;2023-04-15T13:37:07;14.90;70.30
2441;DHT22;1231;53.988;9.470;2023-04-15T13:42:50;15.10;70.00
2441;DHT22;1231;53.988;9.470;2023-04-15T13:48:34;15.10;69.30
2441;DHT22;1231;53.988;9.470;2023-04-15T13:51:25;15.00;69.80
2441;DHT22;1231;53.988;9.470;2023-04-15T13:54:22;14.90;70.10
2441;DHT22;1231;53.988;9.470;2023-04-15T13:57:13;14.90;70.40
2441;DHT22;1231;53.988;9.470;2023-04-15T14:00:05;14.80;70.60
2441;DHT22;1231;53.988;9.470;2023-04-15T14:02:57;14.80;71.10
2441;DHT22;1231;53.988;9.470;2023-04-15T14:08:45;14.80;71.80
2441;DHT22;1231;53.988;9.470;2023-04-15T14:11:39;14.80;71.40
2441;DHT22;1231;53.988;9.470;2023-04-15T14:14:30;14.70;71.10
2441;DHT22;1231;53.988;9.470;2023-04-15T14:23:03;14.70;72.20
2441;DHT22;1231;53.988;9.470;2023-04-15T14:28:45;14.80;70.90
2441;DHT22;1231;53.988;9.470;2023-04-15T14:31:38;14.70;70.60
2441;DHT22;1231;53.988;9.470;2023-04-15T14:34:29;14.70;70.20
2441;DHT22;1231;53.988;9.470;2023-04-15T14:40:11;14.70;70.00
2441;DHT22;1231;53.988;9.470;2023-04-15T14:43:02;14.80;70.20
2441;DHT22;1231;53.988;9.470;2023-04-15T14:45:54;14.90;69.70
2441;DHT22;1231;53.988;9.470;2023-04-15T14:48:45;14.90;69.80
2441;DHT22;1231;53.988;9.470;2023-04-15T14:51:36;15.00;70.00
2441;DHT22;1231;53.988;9.470;2023-04-15T14:54:27;15.00;69.60
2441;DHT22;1231;53.988;9.470;2023-04-15T14:57:18;15.10;70.00
2441;DHT22;1231;53.988;9.470;2023-04-15T15:00:10;15.30;69.50
2441;DHT22;1231;53.988;9.470;2023-04-15T15:03:01;15.30;68.90
2441;DHT22;1231;53.988;9.470;2023-04-15T15:06:02;15.30;69.00
2441;DHT22;1231;53.988;9.470;2023-04-15T15:08:53;15.30;69.00
2441;DHT22;1231;53.988;9.470;2023-04-15T15:11:44;15.20;69.10
2441;DHT22;1231;53.988;9.470;2023-04-15T15:17:26;14.90;69.60
2441;DHT22;1231;53.988;9.470;2023-04-15T15:20:17;14.80;69.40
2441;DHT22;1231;53.988;9.470;2023-04-15T15:23:09;14.90;69.50
2441;DHT22;1231;53.988;9.470;2023-04-15T15:31:42;14.90;70.00
2441;DHT22;1231;53.988;9.470;2023-04-15T15:34:33;14.80;69.80
2441;DHT22;1231;53.988;9.470;2023-04-15T15:40:15;14.70;69.80
2441;DHT22;1231;53.988;9.470;2023-04-15T15:45:57;14.60;70.40
2441;DHT22;1231;53.988;9.470;2023-04-15T15:54:31;14.50;71.10
2441;DHT22;1231;53.988;9.470;2023-04-15T15:57:22;14.60;70.60
2441;DHT22;1231;53.988;9.470;2023-04-15T16:00:13;14.70;71.10
2441;DHT22;1231;53.988;9.470;2023-04-15T16:03:04;14.60;69.50
2441;DHT22;1231;53.988;9.470;2023-04-15T16:05:55;14.60;69.60
2441;DHT22;1231;53.988;9.470;2023-04-15T16:08:46;14.50;69.40
2441;DHT22;1231;53.988;9.470;2023-04-15T16:11:37;14.50;69.70
2441;DHT22;1231;53.988;9.470;2023-04-15T16:17:19;14.40;70.50
2441;DHT22;1231;53.988;9.470;2023-04-15T16:20:10;14.40;70.30
2441;DHT22;1231;53.988;9.470;2023-04-15T16:23:10;14.40;70.10
2441;DHT22;1231;53.988;9.470;2023-04-15T16:28:53;14.40;70.40
2441;DHT22;1231;53.988;9.470;2023-04-15T16:31:47;14.50;70.50
2441;DHT22;1231;53.988;9.470;2023-04-15T16:37:30;14.40;70.70
2441;DHT22;1231;53.988;9.470;2023-04-15T16:40:23;14.40;71.00
2441;DHT22;1231;53.988;9.470;2023-04-15T16:43:14;14.40;71.00
2441;DHT22;1231;53.988;9.470;2023-04-15T16:48:56;14.30;71.90
2441;DHT22;1231;53.988;9.470;2023-04-15T16:51:47;14.30;72.10
2441;DHT22;1231;53.988;9.470;2023-04-15T16:57:31;14.20;73.10
2441;DHT22;1231;53.988;9.470;2023-04-15T17:03:13;14.10;73.30
2441;DHT22;1231;53.988;9.470;2023-04-15T17:06:04;14.10;73.70
2441;DHT22;1231;53.988;9.470;2023-04-15T17:08:55;14.10;73.70
2441;DHT22;1231;53.988;9.470;2023-04-15T17:11:47;14.10;73.70
2441;DHT22;1231;53.988;9.470;2023-04-15T17:17:29;13.90;73.80
2441;DHT22;1231;53.988;9.470;2023-04-15T17:20:20;13.80;74.10
2441;DHT22;1231;53.988;9.470;2023-04-15T17:23:11;13.70;74.50
2441;DHT22;1231;53.988;9.470;2023-04-15T17:26:02;13.70;74.50
2441;DHT22;1231;53.988;9.470;2023-04-15T17:31:44;13.60;75.00
2441;DHT22;1231;53.988;9.470;2023-04-15T17:34:35;13.50;75.20
2441;DHT22;1231;53.988;9.470;2023-04-15T17:37:26;13.40;75.40
2441;DHT22;1231;53.988;9.470;2023-04-15T17:43:08;13.30;75.60
2441;DHT22;1231;53.988;9.470;2023-04-15T17:45:59;13.30;75.70
2441;DHT22;1231;53.988;9.470;2023-04-15T17:48:50;13.20;75.90
2441;DHT22;1231;53.988;9.470;2023-04-15T17:54:32;13.20;76.10
2441;DHT22;1231;53.988;9.470;2023-04-15T17:57:23;13.10;76.00
2441;DHT22;1231;53.988;9.470;2023-04-15T18:00:15;13.00;75.20
2441;DHT22;1231;53.988;9.470;2023-04-15T18:03:06;13.10;75.10
2441;DHT22;1231;53.988;9.470;2023-04-15T18:05:57;13.10;74.60
2441;DHT22;1231;53.988;9.470;2023-04-15T18:08:50;13.00;74.40
2441;DHT22;1231;53.988;9.470;2023-04-15T18:11:41;13.00;74.70
2441;DHT22;1231;53.988;9.470;2023-04-15T18:14:35;13.00;74.90
2441;DHT22;1231;53.988;9.470;2023-04-15T18:17:26;12.90;75.40
2441;DHT22;1231;53.988;9.470;2023-04-15T18:20:17;12.90;75.60
2441;DHT22;1231;53.988;9.470;2023-04-15T18:23:08;12.90;75.80
2441;DHT22;1231;53.988;9.470;2023-04-15T18:25:59;12.90;75.80
2441;DHT22;1231;53.988;9.470;2023-04-15T18:31:41;12.70;76.60
2441;DHT22;1231;53.988;9.470;2023-04-15T18:34:32;12.70;76.60
2441;DHT22;1231;53.988;9.470;2023-04-15T18:37:24;12.70;76.40
2441;DHT22;1231;53.988;9.470;2023-04-15T18:40:15;12.70;76.60
2441;DHT22;1231;53.988;9.470;2023-04-15T18:43:06;12.60;76.60
2441;DHT22;1231;53.988;9.470;2023-04-15T18:45:59;12.60;76.60
2441;DHT22;1231;53.988;9.470;2023-04-15T18:48:51;12.50;76.60
2441;DHT22;1231;53.988;9.470;2023-04-15T18:54:33;12.40;76.30
2441;DHT22;1231;53.988;9.470;2023-04-15T18:57:25;12.30;76.20
2441;DHT22;1231;53.988;9.470;2023-04-15T19:00:16;12.30;76.50
2441;DHT22;1231;53.988;9.470;2023-04-15T19:03:07;12.10;76.70
2441;DHT22;1231;53.988;9.470;2023-04-15T19:05:58;12.10;76.80
2441;DHT22;1231;53.988;9.470;2023-04-15T19:11:41;11.90;77.00
2441;DHT22;1231;53.988;9.470;2023-04-15T19:14:33;11.90;77.10
2441;DHT22;1231;53.988;9.470;2023-04-15T19:17:24;11.80;77.10
2441;DHT22;1231;53.988;9.470;2023-04-15T19:20:15;11.80;77.20
2441;DHT22;1231;53.988;9.470;2023-04-15T19:23:06;11.70;77.20
2441;DHT22;1231;53.988;9.470;2023-04-15T19:28:48;11.60;77.20
2441;DHT22;1231;53.988;9.470;2023-04-15T19:31:39;11.60;77.10
2441;DHT22;1231;53.988;9.470;2023-04-15T19:34:30;11.60;77.20
2441;DHT22;1231;53.988;9.470;2023-04-15T19:37:21;11.50;77.80
2441;DHT22;1231;53.988;9.470;2023-04-15T19:40:12;11.50;78.00
2441;DHT22;1231;53.988;9.470;2023-04-15T19:43:03;11.60;78.30
2441;DHT22;1231;53.988;9.470;2023-04-15T19:45:54;11.50;78.60
2441;DHT22;1231;53.988;9.470;2023-04-15T19:48:52;11.50;79.00
2441;DHT22;1231;53.988;9.470;2023-04-15T19:51:43;11.50;79.30
2441;DHT22;1231;53.988;9.470;2023-04-15T19:54:34;11.50;79.30
2441;DHT22;1231;53.988;9.470;2023-04-15T19:57:25;11.40;79.50
2441;DHT22;1231;53.988;9.470;2023-04-15T20:00:16;11.40;79.40
2441;DHT22;1231;53.988;9.470;2023-04-15T20:05:58;11.40;79.10
2441;DHT22;1231;53.988;9.470;2023-04-15T20:14:33;11.40;78.50
2441;DHT22;1231;53.988;9.470;2023-04-15T20:17:24;11.40;78.50
2441;DHT22;1231;53.988;9.470;2023-04-15T20:23:06;11.40;78.40
2441;DHT22;1231;53.988;9.470;2023-04-15T20:25:57;11.30;78.50
2441;DHT22;1231;53.988;9.470;2023-04-15T20:31:39;11.20;78.70
2441;DHT22;1231;53.988;9.470;2023-04-15T20:37:21;11.10;78.70
2441;DHT22;1231;53.988;9.470;2023-04-15T20:40:13;11.00;79.10
2441;DHT22;1231;53.988;9.470;2023-04-15T20:48:53;11.00;79.20
2441;DHT22;1231;53.988;9.470;2023-04-15T20:51:45;11.00;79.10
2441;DHT22;1231;53.988;9.470;2023-04-15T20:54:36;11.00;79.10